sensor_id;sensor_type;location;lat;lon;timestamp;P1;durP1;ratioP1;P2;durP2;ratioP2
21122;SDS011;10719;48.130;11.630;2023-02-28T00:01:08;5.32;;;2.10;;
21122;SDS011;10719;48.130;11.630;2023-02-28T00:03:34;2.00;;;0.73;;
21122;SDS011;10719;48.130;11.630;2023-02-28T00:06:01;1.30;;;0.70;;
21122;SDS011;10719;48.130;11.630;2023-02-28T00:08:28;0.63;;;0.47;;
21122;SDS011;10719;48.130;11.630;2023-02-28T00:10:53;1.67;;;0.80;;
21122;SDS011;10719;48.130;11.630;2023-02-28T00:13:19;1.07;;;0.80;;
21122;SDS011;10719;48.130;11.630;2023-02-28T00:15:45;1.40;;;0.60;;
21122;SDS011;10719;48.130;11.630;2023-02-28T00:18:11;0.40;;;0.40;;
21122;SDS011;10719;48.130;11.630;2023-02-28T00:20:36;2.17;;;0.80;;
21122;SDS011;10719;48.130;11.630;2023-02-28T00:23:02;0.50;;;0.50;;
21122;SDS011;10719;48.130;11.630;2023-02-28T00:25:28;0.90;;;0.60;;
21122;SDS011;10719;48.130;11.630;2023-02-28T00:27:54;1.70;;;0.60;;
21122;SDS011;10719;48.130;11.630;2023-02-28T00:30:21;0.70;;;0.57;;
21122;SDS011;10719;48.130;11.630;2023-02-28T00:32:48;1.17;;;0.60;;
21122;SDS011;10719;48.130;11.630;2023-02-28T00:35:14;1.73;;;0.60;;
21122;SDS011;10719;48.130;11.630;2023-02-28T00:37:40;5.53;;;1.00;;
21122;SDS011;10719;48.130;11.630;2023-02-28T00:40:06;2.57;;;1.30;;
21122;SDS011;10719;48.130;11.630;2023-02-28T00:42:32;0.90;;;0.70;;
21122;SDS011;10719;48.130;11.630;2023-02-28T00:44:59;3.43;;;1.37;;
21122;SDS011;10719;48.130;11.630;2023-02-28T00:47:25;0.30;;;0.30;;
21122;SDS011;10719;48.130;11.630;2023-02-28T00:49:51;1.60;;;1.23;;
21122;SDS011;10719;48.130;11.630;2023-02-28T00:52:16;3.90;;;1.37;;
21122;SDS011;10719;48.130;11.630;2023-02-28T00:54:42;0.60;;;0.60;;
21122;SDS011;10719;48.130;11.630;2023-02-28T00:57:07;3.63;;;1.43;;
21122;SDS011;10719;48.130;11.630;2023-02-28T00:59:34;1.30;;;0.63;;
21122;SDS011;10719;48.130;11.630;2023-02-28T01:02:00;6.23;;;1.70;;
21122;SDS011;10719;48.130;11.630;2023-02-28T01:04:25;3.50;;;0.97;;
21122;SDS011;10719;48.130;11.630;2023-02-28T01:06:51;0.67;;;0.63;;
21122;SDS011;10719;48.130;11.630;2023-02-28T01:09:17;3.77;;;1.30;;
21122;SDS011;10719;48.130;11.630;2023-02-28T01:11:42;0.73;;;0.53;;
21122;SDS011;10719;48.130;11.630;2023-02-28T01:14:11;1.07;;;0.60;;
21122;SDS011;10719;48.130;11.630;2023-02-28T01:16:38;2.10;;;1.10;;
21122;SDS011;10719;48.130;11.630;2023-02-28T01:19:04;0.70;;;0.50;;
21122;SDS011;10719;48.130;11.630;2023-02-28T01:21:29;1.93;;;0.80;;
21122;SDS011;10719;48.130;11.630;2023-02-28T01:23:56;4.87;;;1.00;;
21122;SDS011;10719;48.130;11.630;2023-02-28T01:26:22;2.87;;;1.03;;
21122;SDS011;10719;48.130;11.630;2023-02-28T01:28:49;3.53;;;1.37;;
21122;SDS011;10719;48.130;11.630;2023-02-28T01:31:16;0.87;;;0.73;;
21122;SDS011;10719;48.130;11.630;2023-02-28T01:33:43;1.23;;;0.60;;
21122;SDS011;10719;48.130;11.630;2023-02-28T01:36:09;1.50;;;1.00;;
21122;SDS011;10719;48.130;11.630;2023-02-28T01:38:37;0.90;;;0.63;;
21122;SDS011;10719;48.130;11.630;2023-02-28T01:41:03;2.60;;;0.90;;
21122;SDS011;10719;48.130;11.630;2023-02-28T01:46:07;2.63;;;0.97;;
21122;SDS011;10719;48.130;11.630;2023-02-28T01:48:34;2.33;;;1.47;;
21122;SDS011;10719;48.130;11.630;2023-02-28T01:51:08;0.70;;;0.57;;
21122;SDS011;10719;48.130;11.630;2023-02-28T01:53:39;3.03;;;0.97;;
21122;SDS011;10719;48.130;11.630;2023-02-28T01:56:09;1.00;;;0.67;;
21122;SDS011;10719;48.130;11.630;2023-02-28T01:58:37;0.90;;;0.50;;
21122;SDS011;10719;48.130;11.630;2023-02-28T02:01:03;1.03;;;0.77;;
21122;SDS011;10719;48.130;11.630;2023-02-28T02:03:30;0.30;;;0.30;;
21122;SDS011;10719;48.130;11.630;2023-02-28T02:05:56;0.97;;;0.70;;
21122;SDS011;10719;48.130;11.630;2023-02-28T02:08:25;1.13;;;0.40;;
21122;SDS011;10719;48.130;11.630;2023-02-28T02:10:57;0.90;;;0.47;;
21122;SDS011;10719;48.130;11.630;2023-02-28T02:16:48;2.30;;;0.83;;
21122;SDS011;10719;48.130;11.630;2023-02-28T02:36:41;2.77;;;0.90;;
21122;SDS011;10719;48.130;11.630;2023-02-28T02:39:48;0.83;;;0.50;;
21122;SDS011;10719;48.130;11.630;2023-02-28T02:42:23;2.23;;;0.97;;
21122;SDS011;10719;48.130;11.630;2023-02-28T02:44:58;1.67;;;0.90;;
21122;SDS011;10719;48.130;11.630;2023-02-28T02:47:32;2.30;;;1.30;;
21122;SDS011;10719;48.130;11.630;2023-02-28T02:49:59;1.23;;;0.77;;
21122;SDS011;10719;48.130;11.630;2023-02-28T02:52:39;2.90;;;0.87;;
21122;SDS011;10719;48.130;11.630;2023-02-28T02:55:09;2.00;;;0.70;;
21122;SDS011;10719;48.130;11.630;2023-02-28T02:57:40;2.20;;;0.90;;
21122;SDS011;10719;48.130;11.630;2023-02-28T03:00:12;0.80;;;0.40;;
21122;SDS011;10719;48.130;11.630;2023-02-28T03:02:41;0.97;;;0.50;;
21122;SDS011;10719;48.130;11.630;2023-02-28T03:05:18;0.80;;;0.80;;
21122;SDS011;10719;48.130;11.630;2023-02-28T03:07:45;2.10;;;1.03;;
21122;SDS011;10719;48.130;11.630;2023-02-28T03:10:27;1.23;;;0.83;;
21122;SDS011;10719;48.130;11.630;2023-02-28T03:13:08;1.00;;;0.37;;
21122;SDS011;10719;48.130;11.630;2023-02-28T03:15:48;2.97;;;1.00;;
21122;SDS011;10719;48.130;11.630;2023-02-28T03:18:27;0.67;;;0.50;;
21122;SDS011;10719;48.130;11.630;2023-02-28T03:21:15;0.57;;;0.50;;
21122;SDS011;10719;48.130;11.630;2023-02-28T03:24:08;5.20;;;0.97;;
21122;SDS011;10719;48.130;11.630;2023-02-28T03:26:41;1.03;;;0.50;;
21122;SDS011;10719;48.130;11.630;2023-02-28T03:29:19;2.70;;;0.93;;
21122;SDS011;10719;48.130;11.630;2023-02-28T03:31:58;2.23;;;0.73;;
21122;SDS011;10719;48.130;11.630;2023-02-28T03:34:34;1.37;;;0.60;;
21122;SDS011;10719;48.130;11.630;2023-02-28T03:37:11;2.63;;;1.00;;
21122;SDS011;10719;48.130;11.630;2023-02-28T03:39:44;2.23;;;1.23;;
21122;SDS011;10719;48.130;11.630;2023-02-28T03:42:15;1.63;;;0.93;;
21122;SDS011;10719;48.130;11.630;2023-02-28T03:44:57;1.20;;;0.73;;
21122;SDS011;10719;48.130;11.630;2023-02-28T03:47:32;1.13;;;0.70;;
21122;SDS011;10719;48.130;11.630;2023-02-28T03:52:34;3.40;;;1.70;;
21122;SDS011;10719;48.130;11.630;2023-02-28T03:55:05;1.90;;;1.00;;
21122;SDS011;10719;48.130;11.630;2023-02-28T03:57:39;1.57;;;0.60;;
21122;SDS011;10719;48.130;11.630;2023-02-28T04:00:28;2.00;;;0.47;;
21122;SDS011;10719;48.130;11.630;2023-02-28T04:02:59;1.03;;;0.93;;
21122;SDS011;10719;48.130;11.630;2023-02-28T04:05:24;0.80;;;0.43;;
21122;SDS011;10719;48.130;11.630;2023-02-28T04:07:52;1.93;;;1.27;;
21122;SDS011;10719;48.130;11.630;2023-02-28T04:10:18;1.40;;;0.90;;
21122;SDS011;10719;48.130;11.630;2023-02-28T04:12:44;0.30;;;0.30;;
21122;SDS011;10719;48.130;11.630;2023-02-28T04:15:10;5.43;;;1.27;;
21122;SDS011;10719;48.130;11.630;2023-02-28T04:17:36;3.00;;;0.73;;
21122;SDS011;10719;48.130;11.630;2023-02-28T04:20:02;3.03;;;1.03;;
21122;SDS011;10719;48.130;11.630;2023-02-28T04:22:28;1.40;;;0.77;;
21122;SDS011;10719;48.130;11.630;2023-02-28T04:24:54;2.77;;;1.17;;
21122;SDS011;10719;48.130;11.630;2023-02-28T04:27:20;2.00;;;0.90;;
21122;SDS011;10719;48.130;11.630;2023-02-28T04:29:46;2.43;;;1.20;;
21122;SDS011;10719;48.130;11.630;2023-02-28T04:32:12;6.60;;;1.80;;
21122;SDS011;10719;48.130;11.630;2023-02-28T04:34:38;3.20;;;0.80;;
21122;SDS011;10719;48.130;11.630;2023-02-28T04:37:04;0.90;;;0.63;;
21122;SDS011;10719;48.130;11.630;2023-02-28T04:39:30;0.80;;;0.60;;
21122;SDS011;10719;48.130;11.630;2023-02-28T04:41:59;4.27;;;1.57;;
21122;SDS011;10719;48.130;11.630;2023-02-28T04:44:25;8.30;;;1.67;;
21122;SDS011;10719;48.130;11.630;2023-02-28T04:46:50;3.40;;;1.43;;
21122;SDS011;10719;48.130;11.630;2023-02-28T04:49:16;2.33;;;1.27;;
21122;SDS011;10719;48.130;11.630;2023-02-28T04:51:41;2.33;;;1.33;;
21122;SDS011;10719;48.130;11.630;2023-02-28T04:54:07;2.27;;;1.37;;
21122;SDS011;10719;48.130;11.630;2023-02-28T04:56:33;4.97;;;1.10;;
21122;SDS011;10719;48.130;11.630;2023-02-28T04:58:59;2.37;;;1.10;;
21122;SDS011;10719;48.130;11.630;2023-02-28T05:01:32;3.67;;;1.07;;
21122;SDS011;10719;48.130;11.630;2023-02-28T05:04:00;2.87;;;1.23;;
21122;SDS011;10719;48.130;11.630;2023-02-28T05:06:27;2.13;;;1.30;;
21122;SDS011;10719;48.130;11.630;2023-02-28T05:08:56;1.63;;;0.97;;
21122;SDS011;10719;48.130;11.630;2023-02-28T05:11:29;3.73;;;1.20;;
21122;SDS011;10719;48.130;11.630;2023-02-28T05:14:00;1.03;;;0.97;;
21122;SDS011;10719;48.130;11.630;2023-02-28T05:16:29;6.40;;;1.37;;
21122;SDS011;10719;48.130;11.630;2023-02-28T05:18:56;1.47;;;1.17;;
21122;SDS011;10719;48.130;11.630;2023-02-28T05:24:02;2.17;;;0.87;;
21122;SDS011;10719;48.130;11.630;2023-02-28T05:26:30;5.43;;;1.80;;
21122;SDS011;10719;48.130;11.630;2023-02-28T05:28:56;1.87;;;1.13;;
21122;SDS011;10719;48.130;11.630;2023-02-28T05:31:22;2.40;;;1.23;;
21122;SDS011;10719;48.130;11.630;2023-02-28T05:33:48;4.40;;;2.03;;
21122;SDS011;10719;48.130;11.630;2023-02-28T05:36:14;2.97;;;1.50;;
21122;SDS011;10719;48.130;11.630;2023-02-28T05:38:39;3.37;;;1.60;;
21122;SDS011;10719;48.130;11.630;2023-02-28T05:41:08;7.40;;;2.30;;
21122;SDS011;10719;48.130;11.630;2023-02-28T05:43:36;6.60;;;1.97;;
21122;SDS011;10719;48.130;11.630;2023-02-28T05:46:07;8.30;;;1.63;;
21122;SDS011;10719;48.130;11.630;2023-02-28T05:48:35;7.67;;;2.67;;
21122;SDS011;10719;48.130;11.630;2023-02-28T05:51:02;5.73;;;1.80;;
21122;SDS011;10719;48.130;11.630;2023-02-28T05:53:28;5.53;;;2.33;;
21122;SDS011;10719;48.130;11.630;2023-02-28T05:55:55;8.40;;;2.33;;
21122;SDS011;10719;48.130;11.630;2023-02-28T05:58:20;4.90;;;2.00;;
21122;SDS011;10719;48.130;11.630;2023-02-28T06:00:46;6.53;;;2.87;;
21122;SDS011;10719;48.130;11.630;2023-02-28T06:03:12;5.07;;;2.10;;
21122;SDS011;10719;48.130;11.630;2023-02-28T06:05:38;2.80;;;1.70;;
21122;SDS011;10719;48.130;11.630;2023-02-28T06:08:04;3.03;;;1.67;;
21122;SDS011;10719;48.130;11.630;2023-02-28T06:10:31;5.60;;;2.37;;
21122;SDS011;10719;48.130;11.630;2023-02-28T06:12:59;4.87;;;1.73;;
21122;SDS011;10719;48.130;11.630;2023-02-28T06:15:27;3.30;;;1.83;;
21122;SDS011;10719;48.130;11.630;2023-02-28T06:17:54;5.03;;;1.90;;
21122;SDS011;10719;48.130;11.630;2023-02-28T06:20:23;4.63;;;2.17;;
21122;SDS011;10719;48.130;11.630;2023-02-28T06:22:51;6.17;;;3.03;;
21122;SDS011;10719;48.130;11.630;2023-02-28T06:25:17;4.00;;;1.47;;
21122;SDS011;10719;48.130;11.630;2023-02-28T06:27:43;4.10;;;2.30;;
21122;SDS011;10719;48.130;11.630;2023-02-28T06:30:09;9.40;;;2.93;;
21122;SDS011;10719;48.130;11.630;2023-02-28T06:32:36;5.33;;;2.47;;
21122;SDS011;10719;48.130;11.630;2023-02-28T06:35:02;3.47;;;1.10;;
21122;SDS011;10719;48.130;11.630;2023-02-28T06:37:28;4.20;;;2.60;;
21122;SDS011;10719;48.130;11.630;2023-02-28T06:39:56;6.33;;;2.40;;
21122;SDS011;10719;48.130;11.630;2023-02-28T06:42:23;5.53;;;2.37;;
21122;SDS011;10719;48.130;11.630;2023-02-28T06:44:56;4.73;;;2.13;;
21122;SDS011;10719;48.130;11.630;2023-02-28T06:47:22;1.93;;;1.20;;
21122;SDS011;10719;48.130;11.630;2023-02-28T06:49:48;2.63;;;1.17;;
21122;SDS011;10719;48.130;11.630;2023-02-28T06:52:14;7.43;;;2.90;;
21122;SDS011;10719;48.130;11.630;2023-02-28T06:54:39;7.27;;;2.83;;
21122;SDS011;10719;48.130;11.630;2023-02-28T06:57:05;4.90;;;2.13;;
21122;SDS011;10719;48.130;11.630;2023-02-28T06:59:31;4.63;;;2.33;;
21122;SDS011;10719;48.130;11.630;2023-02-28T07:01:57;6.97;;;2.90;;
21122;SDS011;10719;48.130;11.630;2023-02-28T07:04:23;5.50;;;2.20;;
21122;SDS011;10719;48.130;11.630;2023-02-28T07:06:48;4.97;;;2.07;;
21122;SDS011;10719;48.130;11.630;2023-02-28T07:09:14;6.33;;;2.30;;
21122;SDS011;10719;48.130;11.630;2023-02-28T07:11:40;4.27;;;1.73;;
21122;SDS011;10719;48.130;11.630;2023-02-28T07:14:08;8.87;;;2.47;;
21122;SDS011;10719;48.130;11.630;2023-02-28T07:16:34;7.43;;;3.03;;
21122;SDS011;10719;48.130;11.630;2023-02-28T07:19:01;5.07;;;2.10;;
21122;SDS011;10719;48.130;11.630;2023-02-28T07:21:27;3.53;;;1.87;;
21122;SDS011;10719;48.130;11.630;2023-02-28T07:23:52;6.60;;;2.87;;
21122;SDS011;10719;48.130;11.630;2023-02-28T07:26:19;6.27;;;2.10;;
21122;SDS011;10719;48.130;11.630;2023-02-28T07:28:46;4.40;;;2.37;;
21122;SDS011;10719;48.130;11.630;2023-02-28T07:31:13;6.10;;;2.60;;
21122;SDS011;10719;48.130;11.630;2023-02-28T07:33:39;8.53;;;3.10;;
21122;SDS011;10719;48.130;11.630;2023-02-28T07:36:07;9.20;;;2.47;;
21122;SDS011;10719;48.130;11.630;2023-02-28T07:38:44;7.70;;;3.63;;
21122;SDS011;10719;48.130;11.630;2023-02-28T07:41:13;4.17;;;1.97;;
21122;SDS011;10719;48.130;11.630;2023-02-28T07:43:39;8.43;;;2.60;;
21122;SDS011;10719;48.130;11.630;2023-02-28T07:46:06;3.87;;;2.03;;
21122;SDS011;10719;48.130;11.630;2023-02-28T07:48:34;5.77;;;2.17;;
21122;SDS011;10719;48.130;11.630;2023-02-28T07:51:00;6.60;;;2.53;;
21122;SDS011;10719;48.130;11.630;2023-02-28T07:53:26;7.93;;;2.27;;
21122;SDS011;10719;48.130;11.630;2023-02-28T07:55:55;8.00;;;4.43;;
21122;SDS011;10719;48.130;11.630;2023-02-28T07:58:25;4.80;;;2.00;;
21122;SDS011;10719;48.130;11.630;2023-02-28T08:00:53;5.40;;;2.53;;
21122;SDS011;10719;48.130;11.630;2023-02-28T08:03:19;3.93;;;2.23;;
21122;SDS011;10719;48.130;11.630;2023-02-28T08:05:46;8.07;;;2.20;;
21122;SDS011;10719;48.130;11.630;2023-02-28T08:08:13;5.23;;;2.33;;
21122;SDS011;10719;48.130;11.630;2023-02-28T08:10:39;3.40;;;1.73;;
21122;SDS011;10719;48.130;11.630;2023-02-28T08:13:05;9.17;;;2.87;;
21122;SDS011;10719;48.130;11.630;2023-02-28T08:15:31;4.00;;;1.73;;
21122;SDS011;10719;48.130;11.630;2023-02-28T08:17:57;6.63;;;1.67;;
21122;SDS011;10719;48.130;11.630;2023-02-28T08:20:23;5.63;;;2.27;;
21122;SDS011;10719;48.130;11.630;2023-02-28T08:22:49;3.93;;;1.90;;
21122;SDS011;10719;48.130;11.630;2023-02-28T08:25:15;5.33;;;2.10;;
21122;SDS011;10719;48.130;11.630;2023-02-28T08:27:41;9.00;;;2.70;;
21122;SDS011;10719;48.130;11.630;2023-02-28T08:30:07;6.40;;;2.53;;
21122;SDS011;10719;48.130;11.630;2023-02-28T08:32:35;12.60;;;3.80;;
21122;SDS011;10719;48.130;11.630;2023-02-28T08:35:00;4.80;;;3.03;;
21122;SDS011;10719;48.130;11.630;2023-02-28T08:37:27;7.90;;;2.80;;
21122;SDS011;10719;48.130;11.630;2023-02-28T08:39:53;5.37;;;2.53;;
21122;SDS011;10719;48.130;11.630;2023-02-28T08:42:19;8.50;;;2.13;;
21122;SDS011;10719;48.130;11.630;2023-02-28T08:44:45;4.67;;;2.47;;
21122;SDS011;10719;48.130;11.630;2023-02-28T08:47:10;6.17;;;2.80;;
21122;SDS011;10719;48.130;11.630;2023-02-28T08:49:36;18.60;;;2.87;;
21122;SDS011;10719;48.130;11.630;2023-02-28T08:52:02;6.17;;;2.43;;
21122;SDS011;10719;48.130;11.630;2023-02-28T08:54:28;5.97;;;3.10;;
21122;SDS011;10719;48.130;11.630;2023-02-28T08:56:56;8.17;;;2.50;;
21122;SDS011;10719;48.130;11.630;2023-02-28T08:59:21;8.83;;;2.63;;
21122;SDS011;10719;48.130;11.630;2023-02-28T09:01:47;7.23;;;3.20;;
21122;SDS011;10719;48.130;11.630;2023-02-28T09:04:13;5.03;;;2.23;;
21122;SDS011;10719;48.130;11.630;2023-02-28T09:06:39;6.40;;;3.27;;
21122;SDS011;10719;48.130;11.630;2023-02-28T09:09:05;6.53;;;2.40;;
21122;SDS011;10719;48.130;11.630;2023-02-28T09:11:32;8.33;;;3.20;;
21122;SDS011;10719;48.130;11.630;2023-02-28T09:13:59;6.03;;;2.77;;
21122;SDS011;10719;48.130;11.630;2023-02-28T09:16:26;8.13;;;2.63;;
21122;SDS011;10719;48.130;11.630;2023-02-28T09:18:51;8.93;;;3.30;;
21122;SDS011;10719;48.130;11.630;2023-02-28T09:21:18;6.03;;;2.27;;
21122;SDS011;10719;48.130;11.630;2023-02-28T09:23:44;4.70;;;2.03;;
21122;SDS011;10719;48.130;11.630;2023-02-28T09:26:15;8.20;;;3.10;;
21122;SDS011;10719;48.130;11.630;2023-02-28T09:28:52;4.03;;;1.60;;
21122;SDS011;10719;48.130;11.630;2023-02-28T09:31:20;7.17;;;2.73;;
21122;SDS011;10719;48.130;11.630;2023-02-28T09:33:47;5.20;;;2.37;;
21122;SDS011;10719;48.130;11.630;2023-02-28T09:36:14;6.77;;;2.97;;
21122;SDS011;10719;48.130;11.630;2023-02-28T09:38:40;5.20;;;2.33;;
21122;SDS011;10719;48.130;11.630;2023-02-28T09:41:15;4.17;;;2.00;;
21122;SDS011;10719;48.130;11.630;2023-02-28T09:43:50;6.83;;;2.70;;
21122;SDS011;10719;48.130;11.630;2023-02-28T09:48:54;4.63;;;2.50;;
21122;SDS011;10719;48.130;11.630;2023-02-28T09:51:26;10.03;;;3.77;;
21122;SDS011;10719;48.130;11.630;2023-02-28T09:54:01;8.90;;;4.10;;
21122;SDS011;10719;48.130;11.630;2023-02-28T10:01:50;9.90;;;3.63;;
21122;SDS011;10719;48.130;11.630;2023-02-28T10:04:42;10.23;;;3.47;;
21122;SDS011;10719;48.130;11.630;2023-02-28T10:10:44;6.60;;;3.23;;
21122;SDS011;10719;48.130;11.630;2023-02-28T10:19:03;5.03;;;2.07;;
21122;SDS011;10719;48.130;11.630;2023-02-28T10:24:45;11.80;;;3.53;;
21122;SDS011;10719;48.130;11.630;2023-02-28T10:27:20;6.50;;;3.03;;
21122;SDS011;10719;48.130;11.630;2023-02-28T10:29:46;7.20;;;2.90;;
21122;SDS011;10719;48.130;11.630;2023-02-28T10:32:15;7.63;;;3.43;;
21122;SDS011;10719;48.130;11.630;2023-02-28T10:34:44;4.23;;;2.47;;
21122;SDS011;10719;48.130;11.630;2023-02-28T10:37:15;10.80;;;3.73;;
21122;SDS011;10719;48.130;11.630;2023-02-28T10:39:42;14.20;;;5.50;;
21122;SDS011;10719;48.130;11.630;2023-02-28T10:42:21;8.93;;;3.73;;
21122;SDS011;10719;48.130;11.630;2023-02-28T10:44:50;7.70;;;3.70;;
21122;SDS011;10719;48.130;11.630;2023-02-28T10:47:29;7.13;;;2.87;;
21122;SDS011;10719;48.130;11.630;2023-02-28T10:49:56;6.87;;;2.70;;
21122;SDS011;10719;48.130;11.630;2023-02-28T10:52:37;9.13;;;3.03;;
21122;SDS011;10719;48.130;11.630;2023-02-28T10:55:21;7.00;;;3.07;;
21122;SDS011;10719;48.130;11.630;2023-02-28T10:57:49;10.80;;;3.20;;
21122;SDS011;10719;48.130;11.630;2023-02-28T11:00:19;6.73;;;2.77;;
21122;SDS011;10719;48.130;11.630;2023-02-28T11:02:46;7.93;;;2.83;;
21122;SDS011;10719;48.130;11.630;2023-02-28T11:10:43;10.47;;;3.70;;
21122;SDS011;10719;48.130;11.630;2023-02-28T11:13:17;5.03;;;2.27;;
21122;SDS011;10719;48.130;11.630;2023-02-28T11:15:52;7.57;;;3.30;;
21122;SDS011;10719;48.130;11.630;2023-02-28T11:18:27;5.80;;;2.33;;
21122;SDS011;10719;48.130;11.630;2023-02-28T11:21:06;10.40;;;3.63;;
21122;SDS011;10719;48.130;11.630;2023-02-28T11:23:33;9.47;;;2.97;;
21122;SDS011;10719;48.130;11.630;2023-02-28T11:26:03;8.80;;;3.27;;
21122;SDS011;10719;48.130;11.630;2023-02-28T11:28:34;7.33;;;2.90;;
21122;SDS011;10719;48.130;11.630;2023-02-28T11:34:10;10.18;;;4.20;;
21122;SDS011;10719;48.130;11.630;2023-02-28T11:36:46;7.17;;;3.33;;
21122;SDS011;10719;48.130;11.630;2023-02-28T11:39:20;13.07;;;4.17;;
21122;SDS011;10719;48.130;11.630;2023-02-28T11:44:46;7.53;;;3.07;;
21122;SDS011;10719;48.130;11.630;2023-02-28T11:55:25;10.00;;;5.18;;
21122;SDS011;10719;48.130;11.630;2023-02-28T12:00:43;10.27;;;3.97;;
21122;SDS011;10719;48.130;11.630;2023-02-28T12:17:35;9.38;;;4.40;;
21122;SDS011;10719;48.130;11.630;2023-02-28T12:28:44;12.40;;;4.78;;
21122;SDS011;10719;48.130;11.630;2023-02-28T12:31:18;14.57;;;5.20;;
21122;SDS011;10719;48.130;11.630;2023-02-28T12:33:50;11.18;;;4.72;;
21122;SDS011;10719;48.130;11.630;2023-02-28T12:36:19;10.93;;;3.97;;
21122;SDS011;10719;48.130;11.630;2023-02-28T12:38:58;11.65;;;4.20;;
21122;SDS011;10719;48.130;11.630;2023-02-28T12:44:25;13.43;;;4.10;;
21122;SDS011;10719;48.130;11.630;2023-02-28T12:47:03;12.05;;;4.10;;
21122;SDS011;10719;48.130;11.630;2023-02-28T12:51:59;10.40;;;3.78;;
21122;SDS011;10719;48.130;11.630;2023-02-28T12:54:32;8.57;;;4.05;;
21122;SDS011;10719;48.130;11.630;2023-02-28T13:00:35;9.73;;;3.95;;
21122;SDS011;10719;48.130;11.630;2023-02-28T13:08:48;10.38;;;4.03;;
21122;SDS011;10719;48.130;11.630;2023-02-28T13:11:31;11.07;;;3.90;;
21122;SDS011;10719;48.130;11.630;2023-02-28T13:13:59;7.90;;;3.35;;
21122;SDS011;10719;48.130;11.630;2023-02-28T13:16:27;10.13;;;4.20;;
21122;SDS011;10719;48.130;11.630;2023-02-28T13:19:16;11.77;;;4.00;;
21122;SDS011;10719;48.130;11.630;2023-02-28T13:21:44;10.32;;;3.92;;
21122;SDS011;10719;48.130;11.630;2023-02-28T13:24:10;17.75;;;4.40;;
21122;SDS011;10719;48.130;11.630;2023-02-28T13:34:41;9.40;;;3.33;;
21122;SDS011;10719;48.130;11.630;2023-02-28T13:47:39;10.27;;;3.75;;
21122;SDS011;10719;48.130;11.630;2023-02-28T13:55:46;8.43;;;2.92;;
21122;SDS011;10719;48.130;11.630;2023-02-28T14:08:51;11.75;;;4.65;;
21122;SDS011;10719;48.130;11.630;2023-02-28T14:11:38;9.65;;;3.72;;
21122;SDS011;10719;48.130;11.630;2023-02-28T14:14:06;9.02;;;3.22;;
21122;SDS011;10719;48.130;11.630;2023-02-28T14:16:45;13.93;;;3.60;;
21122;SDS011;10719;48.130;11.630;2023-02-28T14:19:19;8.88;;;3.55;;
21122;SDS011;10719;48.130;11.630;2023-02-28T14:22:10;10.65;;;3.42;;
21122;SDS011;10719;48.130;11.630;2023-02-28T14:27:57;13.43;;;5.18;;
21122;SDS011;10719;48.130;11.630;2023-02-28T14:33:25;10.57;;;3.50;;
21122;SDS011;10719;48.130;11.630;2023-02-28T14:35:59;8.73;;;3.20;;
21122;SDS011;10719;48.130;11.630;2023-02-28T14:38:27;10.00;;;4.15;;
21122;SDS011;10719;48.130;11.630;2023-02-28T14:41:03;8.93;;;3.92;;
21122;SDS011;10719;48.130;11.630;2023-02-28T14:43:36;9.32;;;4.13;;
21122;SDS011;10719;48.130;11.630;2023-02-28T14:46:02;8.73;;;3.38;;
21122;SDS011;10719;48.130;11.630;2023-02-28T14:48:31;10.10;;;3.95;;
21122;SDS011;10719;48.130;11.630;2023-02-28T14:50:59;8.93;;;3.15;;
21122;SDS011;10719;48.130;11.630;2023-02-28T14:53:27;7.80;;;2.95;;
21122;SDS011;10719;48.130;11.630;2023-02-28T14:55:54;12.15;;;4.05;;
21122;SDS011;10719;48.130;11.630;2023-02-28T15:00:57;10.00;;;3.97;;
21122;SDS011;10719;48.130;11.630;2023-02-28T15:03:33;9.75;;;3.85;;
21122;SDS011;10719;48.130;11.630;2023-02-28T15:06:04;13.57;;;4.03;;
21122;SDS011;10719;48.130;11.630;2023-02-28T15:08:37;5.43;;;2.55;;
21122;SDS011;10719;48.130;11.630;2023-02-28T15:11:12;8.98;;;3.22;;
21122;SDS011;10719;48.130;11.630;2023-02-28T15:13:48;6.30;;;2.72;;
21122;SDS011;10719;48.130;11.630;2023-02-28T15:16:34;8.50;;;3.47;;
21122;SDS011;10719;48.130;11.630;2023-02-28T15:19:05;7.45;;;3.05;;
21122;SDS011;10719;48.130;11.630;2023-02-28T15:21:39;6.95;;;2.88;;
21122;SDS011;10719;48.130;11.630;2023-02-28T15:26:59;14.60;;;4.18;;
21122;SDS011;10719;48.130;11.630;2023-02-28T15:29:29;7.10;;;3.22;;
21122;SDS011;10719;48.130;11.630;2023-02-28T15:32:03;7.38;;;3.65;;
21122;SDS011;10719;48.130;11.630;2023-02-28T15:39:52;8.95;;;3.05;;
21122;SDS011;10719;48.130;11.630;2023-02-28T15:42:20;9.05;;;3.53;;
21122;SDS011;10719;48.130;11.630;2023-02-28T15:44:47;8.02;;;3.10;;
21122;SDS011;10719;48.130;11.630;2023-02-28T15:47:23;10.00;;;3.33;;
21122;SDS011;10719;48.130;11.630;2023-02-28T15:49:55;12.30;;;3.90;;
21122;SDS011;10719;48.130;11.630;2023-02-28T15:52:26;9.32;;;4.13;;
21122;SDS011;10719;48.130;11.630;2023-02-28T15:54:53;10.15;;;4.13;;
21122;SDS011;10719;48.130;11.630;2023-02-28T15:57:20;13.73;;;3.35;;
21122;SDS011;10719;48.130;11.630;2023-02-28T15:59:49;7.15;;;3.50;;
21122;SDS011;10719;48.130;11.630;2023-02-28T16:02:20;9.55;;;3.60;;
21122;SDS011;10719;48.130;11.630;2023-02-28T16:04:58;11.43;;;4.03;;
21122;SDS011;10719;48.130;11.630;2023-02-28T16:07:24;9.00;;;3.27;;
21122;SDS011;10719;48.130;11.630;2023-02-28T16:09:50;13.07;;;5.10;;
21122;SDS011;10719;48.130;11.630;2023-02-28T16:12:16;9.83;;;3.90;;
21122;SDS011;10719;48.130;11.630;2023-02-28T16:14:42;14.10;;;4.07;;
21122;SDS011;10719;48.130;11.630;2023-02-28T16:17:16;9.77;;;3.73;;
21122;SDS011;10719;48.130;11.630;2023-02-28T16:19:49;10.03;;;4.40;;
21122;SDS011;10719;48.130;11.630;2023-02-28T16:22:14;15.73;;;4.93;;
21122;SDS011;10719;48.130;11.630;2023-02-28T16:24:40;17.97;;;4.83;;
21122;SDS011;10719;48.130;11.630;2023-02-28T16:27:06;12.50;;;4.73;;
21122;SDS011;10719;48.130;11.630;2023-02-28T16:29:39;7.57;;;3.30;;
21122;SDS011;10719;48.130;11.630;2023-02-28T16:32:05;10.27;;;4.33;;
21122;SDS011;10719;48.130;11.630;2023-02-28T16:34:31;10.80;;;4.03;;
21122;SDS011;10719;48.130;11.630;2023-02-28T16:36:57;11.40;;;4.27;;
21122;SDS011;10719;48.130;11.630;2023-02-28T16:39:23;13.37;;;3.83;;
21122;SDS011;10719;48.130;11.630;2023-02-28T16:41:49;9.30;;;3.47;;
21122;SDS011;10719;48.130;11.630;2023-02-28T16:44:29;10.20;;;4.37;;
21122;SDS011;10719;48.130;11.630;2023-02-28T16:46:59;7.43;;;2.90;;
21122;SDS011;10719;48.130;11.630;2023-02-28T16:49:25;9.33;;;3.47;;
21122;SDS011;10719;48.130;11.630;2023-02-28T16:51:51;9.43;;;3.47;;
21122;SDS011;10719;48.130;11.630;2023-02-28T16:54:17;12.40;;;5.03;;
21122;SDS011;10719;48.130;11.630;2023-02-28T16:56:44;25.13;;;6.83;;
21122;SDS011;10719;48.130;11.630;2023-02-28T16:59:11;11.07;;;4.63;;
21122;SDS011;10719;48.130;11.630;2023-02-28T17:01:38;21.97;;;8.73;;
21122;SDS011;10719;48.130;11.630;2023-02-28T17:04:03;18.67;;;6.47;;
21122;SDS011;10719;48.130;11.630;2023-02-28T17:06:29;15.57;;;5.47;;
21122;SDS011;10719;48.130;11.630;2023-02-28T17:08:56;12.27;;;5.23;;
21122;SDS011;10719;48.130;11.630;2023-02-28T17:11:23;15.20;;;6.97;;
21122;SDS011;10719;48.130;11.630;2023-02-28T17:13:49;15.03;;;5.50;;
21122;SDS011;10719;48.130;11.630;2023-02-28T17:16:28;11.17;;;4.53;;
21122;SDS011;10719;48.130;11.630;2023-02-28T17:19:03;8.53;;;3.47;;
21122;SDS011;10719;48.130;11.630;2023-02-28T17:21:30;13.73;;;4.67;;
21122;SDS011;10719;48.130;11.630;2023-02-28T17:23:58;12.97;;;5.07;;